sensor_id;sensor_type;location;lat;lon;timestamp;P1;durP1;ratioP1;P2;durP2;ratioP2
55031;SDS011;40928;51.076;7.950;2022-11-09T00:01:24;2.90;;;1.20;;
55031;SDS011;40928;51.076;7.950;2022-11-09T00:03:58;3.60;;;1.35;;
55031;SDS011;40928;51.076;7.950;2022-11-09T00:06:25;6.53;;;1.40;;
55031;SDS011;40928;51.076;7.950;2022-11-09T00:08:51;3.25;;;1.45;;
55031;SDS011;40928;51.076;7.950;2022-11-09T00:11:17;3.92;;;1.52;;
55031;SDS011;40928;51.076;7.950;2022-11-09T00:13:43;3.15;;;1.45;;
55031;SDS011;40928;51.076;7.950;2022-11-09T00:16:10;5.13;;;1.00;;
55031;SDS011;40928;51.076;7.950;2022-11-09T00:18:38;2.78;;;1.10;;
55031;SDS011;40928;51.076;7.950;2022-11-09T00:21:05;1.52;;;0.90;;
55031;SDS011;40928;51.076;7.950;2022-11-09T00:23:36;2.65;;;1.10;;
55031;SDS011;40928;51.076;7.950;2022-11-09T00:26:03;5.28;;;1.50;;
55031;SDS011;40928;51.076;7.950;2022-11-09T00:28:30;5.10;;;1.42;;
55031;SDS011;40928;51.076;7.950;2022-11-09T00:31:04;4.38;;;1.83;;
55031;SDS011;40928;51.076;7.950;2022-11-09T00:33:36;3.08;;;1.52;;
55031;SDS011;40928;51.076;7.950;2022-11-09T00:36:04;5.18;;;1.58;;
55031;SDS011;40928;51.076;7.950;2022-11-09T00:38:34;2.28;;;1.42;;
55031;SDS011;40928;51.076;7.950;2022-11-09T00:41:03;5.57;;;1.38;;
55031;SDS011;40928;51.076;7.950;2022-11-09T00:43:30;2.60;;;1.25;;
55031;SDS011;40928;51.076;7.950;2022-11-09T00:45:56;3.00;;;1.33;;
55031;SDS011;40928;51.076;7.950;2022-11-09T00:48:21;3.30;;;1.52;;
55031;SDS011;40928;51.076;7.950;2022-11-09T00:50:48;3.72;;;1.35;;
55031;SDS011;40928;51.076;7.950;2022-11-09T00:53:14;3.83;;;1.60;;
55031;SDS011;40928;51.076;7.950;2022-11-09T00:55:40;2.72;;;1.30;;
55031;SDS011;40928;51.076;7.950;2022-11-09T00:58:05;3.42;;;1.35;;
55031;SDS011;40928;51.076;7.950;2022-11-09T01:00:31;2.35;;;1.10;;
55031;SDS011;40928;51.076;7.950;2022-11-09T01:02:56;3.35;;;1.20;;
55031;SDS011;40928;51.076;7.950;2022-11-09T01:05:23;3.13;;;1.30;;
55031;SDS011;40928;51.076;7.950;2022-11-09T01:07:49;2.42;;;1.13;;
55031;SDS011;40928;51.076;7.950;2022-11-09T01:10:14;6.80;;;2.53;;
55031;SDS011;40928;51.076;7.950;2022-11-09T01:12:40;5.63;;;1.45;;
55031;SDS011;40928;51.076;7.950;2022-11-09T01:15:06;4.53;;;1.80;;
55031;SDS011;40928;51.076;7.950;2022-11-09T01:17:32;3.40;;;1.10;;
55031;SDS011;40928;51.076;7.950;2022-11-09T01:19:58;3.85;;;1.33;;
55031;SDS011;40928;51.076;7.950;2022-11-09T01:22:23;3.67;;;1.20;;
55031;SDS011;40928;51.076;7.950;2022-11-09T01:24:49;5.63;;;1.52;;
55031;SDS011;40928;51.076;7.950;2022-11-09T01:27:14;3.03;;;1.40;;
55031;SDS011;40928;51.076;7.950;2022-11-09T01:29:40;3.50;;;1.25;;
55031;SDS011;40928;51.076;7.950;2022-11-09T01:32:05;2.30;;;1.40;;
55031;SDS011;40928;51.076;7.950;2022-11-09T01:34:31;6.43;;;1.60;;
55031;SDS011;40928;51.076;7.950;2022-11-09T01:37:00;2.75;;;1.20;;
55031;SDS011;40928;51.076;7.950;2022-11-09T01:39:27;5.30;;;1.60;;
55031;SDS011;40928;51.076;7.950;2022-11-09T01:41:53;3.42;;;1.27;;
55031;SDS011;40928;51.076;7.950;2022-11-09T01:44:18;1.83;;;1.10;;
55031;SDS011;40928;51.076;7.950;2022-11-09T01:49:17;5.57;;;1.30;;
55031;SDS011;40928;51.076;7.950;2022-11-09T01:51:48;3.55;;;1.35;;
55031;SDS011;40928;51.076;7.950;2022-11-09T01:54:19;2.58;;;1.05;;
55031;SDS011;40928;51.076;7.950;2022-11-09T01:56:49;3.97;;;1.40;;
55031;SDS011;40928;51.076;7.950;2022-11-09T01:59:19;3.17;;;1.60;;
55031;SDS011;40928;51.076;7.950;2022-11-09T02:01:49;5.13;;;1.60;;
55031;SDS011;40928;51.076;7.950;2022-11-09T02:04:18;3.28;;;1.20;;
55031;SDS011;40928;51.076;7.950;2022-11-09T02:06:47;4.32;;;1.10;;
55031;SDS011;40928;51.076;7.950;2022-11-09T02:11:57;3.10;;;0.80;;
55031;SDS011;40928;51.076;7.950;2022-11-09T02:14:24;2.67;;;1.50;;
55031;SDS011;40928;51.076;7.950;2022-11-09T02:16:53;2.08;;;0.98;;
55031;SDS011;40928;51.076;7.950;2022-11-09T02:19:19;2.15;;;1.10;;
55031;SDS011;40928;51.076;7.950;2022-11-09T02:21:46;5.15;;;1.58;;
55031;SDS011;40928;51.076;7.950;2022-11-09T02:24:11;7.03;;;1.58;;
55031;SDS011;40928;51.076;7.950;2022-11-09T02:26:41;2.67;;;1.17;;
55031;SDS011;40928;51.076;7.950;2022-11-09T02:29:12;4.90;;;1.55;;
55031;SDS011;40928;51.076;7.950;2022-11-09T02:31:42;3.25;;;1.38;;
55031;SDS011;40928;51.076;7.950;2022-11-09T02:34:14;2.30;;;1.20;;
55031;SDS011;40928;51.076;7.950;2022-11-09T02:36:41;2.15;;;1.35;;
55031;SDS011;40928;51.076;7.950;2022-11-09T02:39:16;2.05;;;1.13;;
55031;SDS011;40928;51.076;7.950;2022-11-09T02:41:52;2.92;;;1.27;;
55031;SDS011;40928;51.076;7.950;2022-11-09T02:44:21;1.95;;;1.15;;
55031;SDS011;40928;51.076;7.950;2022-11-09T02:46:49;3.10;;;1.13;;
55031;SDS011;40928;51.076;7.950;2022-11-09T02:49:16;5.22;;;1.60;;
55031;SDS011;40928;51.076;7.950;2022-11-09T02:51:42;3.30;;;1.08;;
55031;SDS011;40928;51.076;7.950;2022-11-09T02:54:08;4.20;;;1.30;;
55031;SDS011;40928;51.076;7.950;2022-11-09T02:56:34;10.30;;;1.58;;
55031;SDS011;40928;51.076;7.950;2022-11-09T02:59:00;2.08;;;1.02;;
55031;SDS011;40928;51.076;7.950;2022-11-09T03:01:27;7.07;;;1.58;;
55031;SDS011;40928;51.076;7.950;2022-11-09T03:03:53;2.63;;;1.48;;
55031;SDS011;40928;51.076;7.950;2022-11-09T03:06:19;4.05;;;1.38;;
55031;SDS011;40928;51.076;7.950;2022-11-09T03:08:45;2.95;;;1.40;;
55031;SDS011;40928;51.076;7.950;2022-11-09T03:11:12;7.95;;;1.92;;
55031;SDS011;40928;51.076;7.950;2022-11-09T03:13:38;1.67;;;1.10;;
55031;SDS011;40928;51.076;7.950;2022-11-09T03:16:06;3.70;;;1.30;;
55031;SDS011;40928;51.076;7.950;2022-11-09T03:18:36;3.60;;;1.67;;
55031;SDS011;40928;51.076;7.950;2022-11-09T03:21:02;3.25;;;1.23;;
55031;SDS011;40928;51.076;7.950;2022-11-09T03:23:30;2.90;;;1.08;;
55031;SDS011;40928;51.076;7.950;2022-11-09T03:25:57;5.20;;;1.20;;
55031;SDS011;40928;51.076;7.950;2022-11-09T03:28:23;3.00;;;1.20;;
55031;SDS011;40928;51.076;7.950;2022-11-09T03:30:50;2.97;;;1.52;;
55031;SDS011;40928;51.076;7.950;2022-11-09T03:33:16;4.45;;;1.33;;
55031;SDS011;40928;51.076;7.950;2022-11-09T03:35:42;5.07;;;1.23;;
55031;SDS011;40928;51.076;7.950;2022-11-09T03:38:09;2.55;;;1.08;;
55031;SDS011;40928;51.076;7.950;2022-11-09T03:40:35;3.80;;;1.25;;
55031;SDS011;40928;51.076;7.950;2022-11-09T03:43:00;3.47;;;1.50;;
55031;SDS011;40928;51.076;7.950;2022-11-09T03:45:26;2.22;;;1.00;;
55031;SDS011;40928;51.076;7.950;2022-11-09T03:47:52;2.78;;;1.20;;
55031;SDS011;40928;51.076;7.950;2022-11-09T03:50:21;2.30;;;1.10;;
55031;SDS011;40928;51.076;7.950;2022-11-09T03:52:47;3.50;;;1.10;;
55031;SDS011;40928;51.076;7.950;2022-11-09T03:55:13;2.17;;;1.08;;
55031;SDS011;40928;51.076;7.950;2022-11-09T03:57:39;3.63;;;0.90;;
55031;SDS011;40928;51.076;7.950;2022-11-09T04:00:05;1.88;;;1.15;;
55031;SDS011;40928;51.076;7.950;2022-11-09T04:02:36;3.30;;;1.92;;
55031;SDS011;40928;51.076;7.950;2022-11-09T04:05:02;3.38;;;0.98;;
55031;SDS011;40928;51.076;7.950;2022-11-09T04:07:28;4.55;;;0.80;;
55031;SDS011;40928;51.076;7.950;2022-11-09T04:09:53;4.00;;;0.82;;
55031;SDS011;40928;51.076;7.950;2022-11-09T04:12:19;2.55;;;0.88;;
55031;SDS011;40928;51.076;7.950;2022-11-09T04:14:44;4.05;;;0.80;;
55031;SDS011;40928;51.076;7.950;2022-11-09T04:17:10;1.95;;;0.75;;
55031;SDS011;40928;51.076;7.950;2022-11-09T04:19:35;1.00;;;0.60;;
55031;SDS011;40928;51.076;7.950;2022-11-09T04:22:01;2.35;;;0.60;;
55031;SDS011;40928;51.076;7.950;2022-11-09T04:24:27;1.65;;;0.90;;
55031;SDS011;40928;51.076;7.950;2022-11-09T04:26:52;2.30;;;0.60;;
55031;SDS011;40928;51.076;7.950;2022-11-09T04:29:18;1.35;;;0.60;;
55031;SDS011;40928;51.076;7.950;2022-11-09T04:31:43;1.33;;;0.63;;
55031;SDS011;40928;51.076;7.950;2022-11-09T04:34:09;2.28;;;0.65;;
55031;SDS011;40928;51.076;7.950;2022-11-09T04:36:34;2.50;;;0.82;;
55031;SDS011;40928;51.076;7.950;2022-11-09T04:39:00;2.38;;;0.73;;
55031;SDS011;40928;51.076;7.950;2022-11-09T04:41:26;2.55;;;1.05;;
55031;SDS011;40928;51.076;7.950;2022-11-09T04:43:52;2.53;;;0.55;;
55031;SDS011;40928;51.076;7.950;2022-11-09T04:46:18;2.28;;;0.80;;
55031;SDS011;40928;51.076;7.950;2022-11-09T04:48:43;3.22;;;0.55;;
55031;SDS011;40928;51.076;7.950;2022-11-09T04:51:09;8.88;;;0.75;;
55031;SDS011;40928;51.076;7.950;2022-11-09T04:53:36;3.22;;;0.75;;
55031;SDS011;40928;51.076;7.950;2022-11-09T04:56:03;3.08;;;0.85;;
55031;SDS011;40928;51.076;7.950;2022-11-09T04:58:30;1.02;;;0.50;;
55031;SDS011;40928;51.076;7.950;2022-11-09T05:01:00;4.43;;;0.70;;
55031;SDS011;40928;51.076;7.950;2022-11-09T05:03:28;1.77;;;0.68;;
55031;SDS011;40928;51.076;7.950;2022-11-09T05:05:53;3.72;;;0.52;;
55031;SDS011;40928;51.076;7.950;2022-11-09T05:08:19;2.75;;;0.95;;
55031;SDS011;40928;51.076;7.950;2022-11-09T05:10:44;1.88;;;0.63;;
55031;SDS011;40928;51.076;7.950;2022-11-09T05:13:10;1.65;;;0.68;;
55031;SDS011;40928;51.076;7.950;2022-11-09T05:15:37;2.75;;;0.60;;
55031;SDS011;40928;51.076;7.950;2022-11-09T05:18:03;3.42;;;0.43;;
55031;SDS011;40928;51.076;7.950;2022-11-09T05:20:29;3.90;;;0.65;;
55031;SDS011;40928;51.076;7.950;2022-11-09T05:22:56;5.32;;;0.77;;
55031;SDS011;40928;51.076;7.950;2022-11-09T05:25:40;2.47;;;0.60;;
55031;SDS011;40928;51.076;7.950;2022-11-09T05:28:06;1.35;;;0.60;;
55031;SDS011;40928;51.076;7.950;2022-11-09T05:30:32;0.88;;;0.50;;
55031;SDS011;40928;51.076;7.950;2022-11-09T05:32:57;2.50;;;0.57;;
55031;SDS011;40928;51.076;7.950;2022-11-09T05:35:23;0.40;;;0.40;;
55031;SDS011;40928;51.076;7.950;2022-11-09T05:37:48;1.50;;;0.80;;
55031;SDS011;40928;51.076;7.950;2022-11-09T05:40:15;3.58;;;0.75;;
55031;SDS011;40928;51.076;7.950;2022-11-09T05:42:42;2.40;;;0.50;;
55031;SDS011;40928;51.076;7.950;2022-11-09T05:45:09;1.30;;;0.95;;
55031;SDS011;40928;51.076;7.950;2022-11-09T05:47:37;1.73;;;0.60;;
55031;SDS011;40928;51.076;7.950;2022-11-09T05:50:03;1.58;;;0.65;;
55031;SDS011;40928;51.076;7.950;2022-11-09T05:52:33;1.58;;;0.70;;
55031;SDS011;40928;51.076;7.950;2022-11-09T05:55:02;1.15;;;0.80;;
55031;SDS011;40928;51.076;7.950;2022-11-09T05:57:28;1.98;;;0.57;;
55031;SDS011;40928;51.076;7.950;2022-11-09T05:59:54;0.82;;;0.73;;
55031;SDS011;40928;51.076;7.950;2022-11-09T06:02:19;1.45;;;0.93;;
55031;SDS011;40928;51.076;7.950;2022-11-09T06:04:45;3.53;;;0.85;;
55031;SDS011;40928;51.076;7.950;2022-11-09T06:07:11;1.17;;;0.80;;
55031;SDS011;40928;51.076;7.950;2022-11-09T06:09:36;2.15;;;0.90;;
55031;SDS011;40928;51.076;7.950;2022-11-09T06:12:02;2.22;;;0.77;;
55031;SDS011;40928;51.076;7.950;2022-11-09T06:14:28;1.42;;;0.82;;
55031;SDS011;40928;51.076;7.950;2022-11-09T06:16:53;3.50;;;1.13;;
55031;SDS011;40928;51.076;7.950;2022-11-09T06:19:19;4.90;;;0.82;;
55031;SDS011;40928;51.076;7.950;2022-11-09T06:21:45;1.73;;;0.82;;
55031;SDS011;40928;51.076;7.950;2022-11-09T06:24:10;5.53;;;0.75;;
55031;SDS011;40928;51.076;7.950;2022-11-09T06:26:36;3.15;;;0.77;;
55031;SDS011;40928;51.076;7.950;2022-11-09T06:29:02;2.92;;;0.70;;
55031;SDS011;40928;51.076;7.950;2022-11-09T06:31:28;1.52;;;0.75;;
55031;SDS011;40928;51.076;7.950;2022-11-09T06:33:54;1.20;;;0.80;;
55031;SDS011;40928;51.076;7.950;2022-11-09T06:36:20;2.30;;;1.00;;
55031;SDS011;40928;51.076;7.950;2022-11-09T06:38:49;1.80;;;0.85;;
55031;SDS011;40928;51.076;7.950;2022-11-09T06:41:16;1.65;;;0.70;;
55031;SDS011;40928;51.076;7.950;2022-11-09T06:43:42;1.90;;;0.50;;
55031;SDS011;40928;51.076;7.950;2022-11-09T06:46:08;0.77;;;0.57;;
55031;SDS011;40928;51.076;7.950;2022-11-09T06:48:41;4.10;;;0.40;;
55031;SDS011;40928;51.076;7.950;2022-11-09T06:51:07;0.95;;;0.40;;
55031;SDS011;40928;51.076;7.950;2022-11-09T06:53:34;2.38;;;0.73;;
55031;SDS011;40928;51.076;7.950;2022-11-09T06:56:02;0.90;;;0.52;;
55031;SDS011;40928;51.076;7.950;2022-11-09T06:58:29;3.22;;;0.50;;
55031;SDS011;40928;51.076;7.950;2022-11-09T07:00:56;0.70;;;0.52;;
55031;SDS011;40928;51.076;7.950;2022-11-09T07:03:22;1.15;;;0.63;;
55031;SDS011;40928;51.076;7.950;2022-11-09T07:05:48;3.45;;;0.88;;
55031;SDS011;40928;51.076;7.950;2022-11-09T07:08:15;1.42;;;0.98;;
55031;SDS011;40928;51.076;7.950;2022-11-09T07:10:41;1.17;;;0.60;;
55031;SDS011;40928;51.076;7.950;2022-11-09T07:13:08;2.28;;;0.57;;
55031;SDS011;40928;51.076;7.950;2022-11-09T07:15:34;3.80;;;0.82;;
55031;SDS011;40928;51.076;7.950;2022-11-09T07:18:01;2.75;;;0.50;;
55031;SDS011;40928;51.076;7.950;2022-11-09T07:20:28;1.77;;;0.40;;
55031;SDS011;40928;51.076;7.950;2022-11-09T07:22:54;2.08;;;0.60;;
55031;SDS011;40928;51.076;7.950;2022-11-09T07:25:20;1.58;;;0.45;;
55031;SDS011;40928;51.076;7.950;2022-11-09T07:27:45;2.67;;;0.50;;
55031;SDS011;40928;51.076;7.950;2022-11-09T07:30:11;0.85;;;0.50;;
55031;SDS011;40928;51.076;7.950;2022-11-09T07:32:38;1.67;;;0.40;;
55031;SDS011;40928;51.076;7.950;2022-11-09T07:35:04;0.28;;;0.22;;
55031;SDS011;40928;51.076;7.950;2022-11-09T07:37:31;1.60;;;0.38;;
55031;SDS011;40928;51.076;7.950;2022-11-09T07:39:57;1.58;;;0.40;;
55031;SDS011;40928;51.076;7.950;2022-11-09T07:42:22;1.83;;;0.50;;
55031;SDS011;40928;51.076;7.950;2022-11-09T07:44:48;1.55;;;0.70;;
55031;SDS011;40928;51.076;7.950;2022-11-09T07:47:14;1.40;;;0.45;;
55031;SDS011;40928;51.076;7.950;2022-11-09T07:49:41;1.77;;;0.40;;
55031;SDS011;40928;51.076;7.950;2022-11-09T07:52:07;0.60;;;0.30;;
55031;SDS011;40928;51.076;7.950;2022-11-09T07:54:32;3.13;;;0.50;;
55031;SDS011;40928;51.076;7.950;2022-11-09T07:56:58;1.23;;;0.63;;
55031;SDS011;40928;51.076;7.950;2022-11-09T07:59:23;1.45;;;0.45;;
55031;SDS011;40928;51.076;7.950;2022-11-09T08:01:49;3.08;;;0.77;;
55031;SDS011;40928;51.076;7.950;2022-11-09T08:04:15;2.15;;;0.73;;
55031;SDS011;40928;51.076;7.950;2022-11-09T08:06:40;0.65;;;0.30;;
55031;SDS011;40928;51.076;7.950;2022-11-09T08:09:06;2.08;;;0.73;;
55031;SDS011;40928;51.076;7.950;2022-11-09T08:11:31;3.88;;;0.45;;
55031;SDS011;40928;51.076;7.950;2022-11-09T08:13:57;4.75;;;0.80;;
55031;SDS011;40928;51.076;7.950;2022-11-09T08:16:22;1.65;;;0.40;;
55031;SDS011;40928;51.076;7.950;2022-11-09T08:18:51;2.78;;;0.68;;
55031;SDS011;40928;51.076;7.950;2022-11-09T08:21:17;2.88;;;0.60;;
55031;SDS011;40928;51.076;7.950;2022-11-09T08:23:43;0.90;;;0.43;;
55031;SDS011;40928;51.076;7.950;2022-11-09T08:26:09;1.25;;;0.45;;
55031;SDS011;40928;51.076;7.950;2022-11-09T08:28:35;6.15;;;1.00;;
55031;SDS011;40928;51.076;7.950;2022-11-09T08:31:03;1.23;;;0.60;;
55031;SDS011;40928;51.076;7.950;2022-11-09T08:33:32;2.67;;;0.38;;
55031;SDS011;40928;51.076;7.950;2022-11-09T08:35:59;1.33;;;0.57;;
55031;SDS011;40928;51.076;7.950;2022-11-09T08:38:25;5.20;;;0.60;;
55031;SDS011;40928;51.076;7.950;2022-11-09T08:40:57;6.00;;;0.75;;
55031;SDS011;40928;51.076;7.950;2022-11-09T08:43:23;2.65;;;0.50;;
55031;SDS011;40928;51.076;7.950;2022-11-09T08:45:49;0.90;;;0.50;;
55031;SDS011;40928;51.076;7.950;2022-11-09T08:48:15;5.50;;;0.57;;
55031;SDS011;40928;51.076;7.950;2022-11-09T08:50:40;3.60;;;0.65;;
55031;SDS011;40928;51.076;7.950;2022-11-09T08:53:06;9.45;;;1.85;;
55031;SDS011;40928;51.076;7.950;2022-11-09T08:55:32;14.55;;;1.13;;
55031;SDS011;40928;51.076;7.950;2022-11-09T08:57:59;5.40;;;0.60;;
55031;SDS011;40928;51.076;7.950;2022-11-09T09:00:26;5.00;;;0.43;;
55031;SDS011;40928;51.076;7.950;2022-11-09T09:02:52;2.50;;;0.60;;
55031;SDS011;40928;51.076;7.950;2022-11-09T09:05:17;6.47;;;0.60;;
55031;SDS011;40928;51.076;7.950;2022-11-09T09:07:43;2.70;;;0.40;;
55031;SDS011;40928;51.076;7.950;2022-11-09T09:10:08;2.13;;;0.57;;
55031;SDS011;40928;51.076;7.950;2022-11-09T09:12:35;4.55;;;0.50;;
55031;SDS011;40928;51.076;7.950;2022-11-09T09:15:00;0.80;;;0.40;;
55031;SDS011;40928;51.076;7.950;2022-11-09T09:17:26;1.50;;;0.40;;
55031;SDS011;40928;51.076;7.950;2022-11-09T09:19:51;0.70;;;0.30;;
55031;SDS011;40928;51.076;7.950;2022-11-09T09:22:17;3.97;;;0.85;;
55031;SDS011;40928;51.076;7.950;2022-11-09T09:24:43;5.35;;;0.63;;
55031;SDS011;40928;51.076;7.950;2022-11-09T09:27:09;2.63;;;0.40;;
55031;SDS011;40928;51.076;7.950;2022-11-09T09:29:34;3.13;;;0.77;;
55031;SDS011;40928;51.076;7.950;2022-11-09T09:32:00;2.92;;;0.50;;
55031;SDS011;40928;51.076;7.950;2022-11-09T09:34:25;2.38;;;0.55;;
55031;SDS011;40928;51.076;7.950;2022-11-09T09:36:51;2.85;;;0.40;;
55031;SDS011;40928;51.076;7.950;2022-11-09T09:39:17;2.10;;;0.52;;
55031;SDS011;40928;51.076;7.950;2022-11-09T09:50:13;0.63;;;0.20;;
55031;SDS011;40928;51.076;7.950;2022-11-09T09:52:52;5.80;;;0.45;;
55031;SDS011;40928;51.076;7.950;2022-11-09T09:55:36;3.05;;;0.60;;
55031;SDS011;40928;51.076;7.950;2022-11-09T09:58:06;2.28;;;0.30;;
55031;SDS011;40928;51.076;7.950;2022-11-09T10:01:05;3.08;;;0.40;;
55031;SDS011;40928;51.076;7.950;2022-11-09T10:03:36;1.40;;;0.38;;
55031;SDS011;40928;51.076;7.950;2022-11-09T10:06:05;1.70;;;0.38;;
55031;SDS011;40928;51.076;7.950;2022-11-09T10:11:33;3.45;;;0.43;;
55031;SDS011;40928;51.076;7.950;2022-11-09T10:17:06;3.45;;;0.30;;
55031;SDS011;40928;51.076;7.950;2022-11-09T10:25:31;2.72;;;0.47;;
55031;SDS011;40928;51.076;7.950;2022-11-09T10:27:51;3.30;;;0.43;;
55031;SDS011;40928;51.076;7.950;2022-11-09T10:30:19;7.97;;;0.60;;
55031;SDS011;40928;51.076;7.950;2022-11-09T10:32:47;1.50;;;0.40;;
55031;SDS011;40928;51.076;7.950;2022-11-09T10:35:20;2.92;;;0.32;;
55031;SDS011;40928;51.076;7.950;2022-11-09T10:37:50;3.78;;;0.40;;
55031;SDS011;40928;51.076;7.950;2022-11-09T10:40:27;4.18;;;0.32;;
55031;SDS011;40928;51.076;7.950;2022-11-09T10:43:31;2.10;;;0.22;;
55031;SDS011;40928;51.076;7.950;2022-11-09T10:46:15;4.38;;;0.45;;
55031;SDS011;40928;51.076;7.950;2022-11-09T10:49:07;3.95;;;0.40;;
55031;SDS011;40928;51.076;7.950;2022-11-09T10:52:02;1.20;;;0.40;;
55031;SDS011;40928;51.076;7.950;2022-11-09T10:54:48;1.75;;;0.40;;
55031;SDS011;40928;51.076;7.950;2022-11-09T10:57:32;2.83;;;0.40;;
55031;SDS011;40928;51.076;7.950;2022-11-09T11:00:17;3.13;;;0.45;;
55031;SDS011;40928;51.076;7.950;2022-11-09T11:03:36;1.38;;;0.45;;
55031;SDS011;40928;51.076;7.950;2022-11-09T11:06:16;1.73;;;0.30;;
55031;SDS011;40928;51.076;7.950;2022-11-09T11:12:04;3.95;;;0.65;;
55031;SDS011;40928;51.076;7.950;2022-11-09T11:15:13;4.65;;;0.50;;
55031;SDS011;40928;51.076;7.950;2022-11-09T11:18:12;4.72;;;0.28;;
55031;SDS011;40928;51.076;7.950;2022-11-09T11:21:10;3.67;;;0.43;;
55031;SDS011;40928;51.076;7.950;2022-11-09T11:27:00;5.50;;;0.30;;
55031;SDS011;40928;51.076;7.950;2022-11-09T11:29:51;6.18;;;0.40;;
55031;SDS011;40928;51.076;7.950;2022-11-09T11:32:41;3.55;;;0.57;;
55031;SDS011;40928;51.076;7.950;2022-11-09T11:35:33;4.43;;;0.30;;
55031;SDS011;40928;51.076;7.950;2022-11-09T11:47:01;0.63;;;0.28;;
55031;SDS011;40928;51.076;7.950;2022-11-09T11:53:30;3.00;;;0.40;;
55031;SDS011;40928;51.076;7.950;2022-11-09T11:59:16;2.67;;;0.57;;
55031;SDS011;40928;51.076;7.950;2022-11-09T12:36:21;1.85;;;0.47;;
55031;SDS011;40928;51.076;7.950;2022-11-09T12:38:55;2.42;;;0.43;;
55031;SDS011;40928;51.076;7.950;2022-11-09T12:41:44;2.80;;;0.45;;
55031;SDS011;40928;51.076;7.950;2022-11-09T12:44:34;6.05;;;0.45;;
55031;SDS011;40928;51.076;7.950;2022-11-09T12:47:25;1.92;;;0.40;;
55031;SDS011;40928;51.076;7.950;2022-11-09T12:50:14;4.38;;;0.65;;
55031;SDS011;40928;51.076;7.950;2022-11-09T12:53:02;3.33;;;0.30;;
55031;SDS011;40928;51.076;7.950;2022-11-09T12:58:35;1.75;;;0.40;;
55031;SDS011;40928;51.076;7.950;2022-11-09T13:04:18;1.60;;;0.30;;
55031;SDS011;40928;51.076;7.950;2022-11-09T13:09:56;3.80;;;0.50;;
55031;SDS011;40928;51.076;7.950;2022-11-09T13:12:44;4.97;;;0.40;;
55031;SDS011;40928;51.076;7.950;2022-11-09T13:15:29;4.28;;;0.95;;
55031;SDS011;40928;51.076;7.950;2022-11-09T13:27:46;4.55;;;0.60;;
55031;SDS011;40928;51.076;7.950;2022-11-09T13:30:38;3.70;;;0.35;;
55031;SDS011;40928;51.076;7.950;2022-11-09T13:42:27;2.45;;;0.57;;
55031;SDS011;40928;51.076;7.950;2022-11-09T13:48:24;4.68;;;0.50;;
55031;SDS011;40928;51.076;7.950;2022-11-09T13:51:21;3.85;;;0.60;;
55031;SDS011;40928;51.076;7.950;2022-11-09T13:57:17;4.28;;;0.50;;
55031;SDS011;40928;51.076;7.950;2022-11-09T14:00:03;4.30;;;0.50;;
55031;SDS011;40928;51.076;7.950;2022-11-09T14:06:04;6.95;;;0.70;;
55031;SDS011;40928;51.076;7.950;2022-11-09T14:17:35;2.67;;;0.32;;
55031;SDS011;40928;51.076;7.950;2022-11-09T14:23:22;3.22;;;0.60;;
55031;SDS011;40928;51.076;7.950;2022-11-09T14:26:18;7.20;;;0.80;;
55031;SDS011;40928;51.076;7.950;2022-11-09T14:29:19;4.10;;;0.50;;
55031;SDS011;40928;51.076;7.950;2022-11-09T14:32:21;2.88;;;0.75;;
55031;SDS011;40928;51.076;7.950;2022-11-09T14:41:19;7.80;;;0.60;;
55031;SDS011;40928;51.076;7.950;2022-11-09T14:44:05;5.22;;;0.77;;
55031;SDS011;40928;51.076;7.950;2022-11-09T14:46:58;5.22;;;0.90;;
55031;SDS011;40928;51.076;7.950;2022-11-09T14:49:42;6.60;;;1.02;;
55031;SDS011;40928;51.076;7.950;2022-11-09T14:52:28;5.00;;;0.93;;
55031;SDS011;40928;51.076;7.950;2022-11-09T14:55:13;4.20;;;1.25;;
55031;SDS011;40928;51.076;7.950;2022-11-09T14:57:59;5.30;;;0.60;;
55031;SDS011;40928;51.076;7.950;2022-11-09T15:01:03;2.53;;;0.70;;
55031;SDS011;40928;51.076;7.950;2022-11-09T15:06:52;2.08;;;0.55;;
55031;SDS011;40928;51.076;7.950;2022-11-09T15:09:44;8.90;;;1.10;;
55031;SDS011;40928;51.076;7.950;2022-11-09T15:12:32;3.42;;;0.80;;
55031;SDS011;40928;51.076;7.950;2022-11-09T15:18:04;6.60;;;0.77;;
55031;SDS011;40928;51.076;7.950;2022-11-09T15:20:48;2.95;;;0.70;;
55031;SDS011;40928;51.076;7.950;2022-11-09T15:26:53;5.88;;;1.05;;
55031;SDS011;40928;51.076;7.950;2022-11-09T15:32:23;3.53;;;0.88;;
55031;SDS011;40928;51.076;7.950;2022-11-09T15:35:13;3.75;;;1.65;;
55031;SDS011;40928;51.076;7.950;2022-11-09T15:37:59;4.70;;;0.40;;
55031;SDS011;40928;51.076;7.950;2022-11-09T15:40:43;4.03;;;0.60;;
55031;SDS011;40928;51.076;7.950;2022-11-09T15:43:27;2.38;;;0.32;;
55031;SDS011;40928;51.076;7.950;2022-11-09T15:46:12;3.43;;;0.77;;
55031;SDS011;40928;51.076;7.950;2022-11-09T15:49:05;4.35;;;0.80;;
55031;SDS011;40928;51.076;7.950;2022-11-09T15:51:57;2.60;;;0.57;;
55031;SDS011;40928;51.076;7.950;2022-11-09T15:54:41;9.52;;;1.00;;
55031;SDS011;40928;51.076;7.950;2022-11-09T15:57:25;3.65;;;0.95;;
55031;SDS011;40928;51.076;7.950;2022-11-09T16:00:13;5.30;;;0.75;;
55031;SDS011;40928;51.076;7.950;2022-11-09T16:02:59;9.02;;;1.15;;
55031;SDS011;40928;51.076;7.950;2022-11-09T16:05:43;5.45;;;0.60;;
55031;SDS011;40928;51.076;7.950;2022-11-09T16:08:28;3.67;;;0.95;;
55031;SDS011;40928;51.076;7.950;2022-11-09T16:11:12;5.95;;;1.10;;
55031;SDS011;40928;51.076;7.950;2022-11-09T16:13:58;4.10;;;0.80;;
55031;SDS011;40928;51.076;7.950;2022-11-09T16:16:42;2.05;;;0.55;;
55031;SDS011;40928;51.076;7.950;2022-11-09T16:19:26;3.53;;;0.93;;
55031;SDS011;40928;51.076;7.950;2022-11-09T16:22:10;3.17;;;0.63;;
55031;SDS011;40928;51.076;7.950;2022-11-09T16:24:54;4.18;;;0.95;;
55031;SDS011;40928;51.076;7.950;2022-11-09T16:27:39;5.43;;;1.00;;
55031;SDS011;40928;51.076;7.950;2022-11-09T16:30:23;3.42;;;1.35;;
55031;SDS011;40928;51.076;7.950;2022-11-09T16:33:07;4.70;;;1.65;;
55031;SDS011;40928;51.076;7.950;2022-11-09T16:35:52;4.77;;;0.97;;
55031;SDS011;40928;51.076;7.950;2022-11-09T16:38:41;6.38;;;1.60;;
55031;SDS011;40928;51.076;7.950;2022-11-09T16:41:27;4.75;;;0.85;;
55031;SDS011;40928;51.076;7.950;2022-11-09T16:44:13;3.60;;;1.42;;
55031;SDS011;40928;51.076;7.950;2022-11-09T16:47:03;9.40;;;1.33;;
55031;SDS011;40928;51.076;7.950;2022-11-09T16:49:49;4.40;;;0.70;;
55031;SDS011;40928;51.076;7.950;2022-11-09T16:52:34;3.85;;;0.70;;
55031;SDS011;40928;51.076;7.950;2022-11-09T16:55:18;7.72;;;1.50;;
55031;SDS011;40928;51.076;7.950;2022-11-09T16:58:02;13.43;;;1.50;;
55031;SDS011;40928;51.076;7.950;2022-11-09T17:00:48;3.30;;;0.75;;
55031;SDS011;40928;51.076;7.950;2022-11-09T17:03:33;17.52;;;1.90;;
55031;SDS011;40928;51.076;7.950;2022-11-09T17:06:17;7.35;;;1.17;;
55031;SDS011;40928;51.076;7.950;2022-11-09T17:09:00;3.28;;;1.45;;
55031;SDS011;40928;51.076;7.950;2022-11-09T17:11:44;7.13;;;1.73;;
55031;SDS011;40928;51.076;7.950;2022-11-09T17:14:29;6.65;;;1.33;;
55031;SDS011;40928;51.076;7.950;2022-11-09T17:17:13;4.00;;;1.30;;
55031;SDS011;40928;51.076;7.950;2022-11-09T17:19:57;3.97;;;1.63;;
55031;SDS011;40928;51.076;7.950;2022-11-09T17:22:44;2.83;;;1.20;;
55031;SDS011;40928;51.076;7.950;2022-11-09T17:25:28;4.30;;;1.10;;
55031;SDS011;40928;51.076;7.950;2022-11-09T17:28:12;4.22;;;0.95;;
55031;SDS011;40928;51.076;7.950;2022-11-09T17:30:56;3.95;;;0.77;;
55031;SDS011;40928;51.076;7.950;2022-11-09T17:33:44;9.30;;;1.60;;
55031;SDS011;40928;51.076;7.950;2022-11-09T17:36:28;2.53;;;1.05;;
55031;SDS011;40928;51.076;7.950;2022-11-09T17:39:12;5.65;;;1.27;;
55031;SDS011;40928;51.076;7.950;2022-11-09T17:41:56;7.95;;;1.30;;
55031;SDS011;40928;51.076;7.950;2022-11-09T17:44:40;8.57;;;1.10;;
55031;SDS011;40928;51.076;7.950;2022-11-09T17:47:23;4.18;;;1.02;;
55031;SDS011;40928;51.076;7.950;2022-11-09T17:50:07;8.43;;;1.25;;
55031;SDS011;40928;51.076;7.950;2022-11-09T17:52:52;5.38;;;1.58;;